Time;durP1;ratioP1;P1;durP2;ratioP2;P2;SDS_P1;SDS_P2;PMS_P1;PMS_P2;Temp;Humidity;BMP_temperature;BMP_pressure;BME280_temperature;BME280_humidity;BME280_pressure;Samples;Min_cycle;Max_cycle;Signal;HPM_P1;HPM_P2
2022/11/08 00:02:06;;;;;;;7.10;2.50;;;;;;;13.73;73.53;98154.66;4999193;28;20072;-50
2022/11/08 00:04:33;;;;;;;5.10;1.83;;;;;;;13.74;73.61;98160.66;4979341;28;20069;-50
2022/11/08 00:15:20;;;;;;;5.57;2.38;;;;;;;13.75;72.44;98141.56;4979229;28;20052;-49
2022/11/08 00:17:46;;;;;;;3.70;2.20;;;;;;;13.76;72.64;98143.25;4981701;28;20070;-48
2022/11/08 00:20:13;;;;;;;6.75;1.80;;;;;;;13.72;72.81;98131.28;4977080;28;20515;-48
2022/11/08 00:22:39;;;;;;;7.78;1.88;;;;;;;13.73;71.95;98114.75;4982140;28;20051;-49
2022/11/08 00:25:06;;;;;;;13.25;2.45;;;;;;;13.80;72.41;98134.38;4986554;28;20129;-49
2022/11/08 00:27:33;;;;;;;9.77;2.90;;;;;;;13.75;72.16;98120.75;4984595;28;20074;-50
2022/11/08 00:30:00;;;;;;;10.50;2.17;;;;;;;13.67;71.93;98120.25;4975029;28;20588;-53
2022/11/08 00:32:26;;;;;;;6.57;2.15;;;;;;;13.75;72.33;98115.56;4976649;28;20046;-50
2022/11/08 00:34:53;;;;;;;10.52;2.67;;;;;;;13.74;72.07;98106.91;4981733;28;20134;-51
2022/11/08 00:37:20;;;;;;;4.85;2.15;;;;;;;13.74;71.61;98108.63;4979216;28;20137;-50
2022/11/08 00:39:47;;;;;;;7.07;2.38;;;;;;;13.80;71.30;98113.56;4983977;28;20145;-49
2022/11/08 00:42:14;;;;;;;6.72;2.20;;;;;;;13.76;71.25;98109.44;4979352;28;20048;-50
2022/11/08 00:44:41;;;;;;;3.70;2.38;;;;;;;13.80;71.81;98118.78;4981827;28;20070;-48
2022/11/08 00:47:08;;;;;;;10.48;2.38;;;;;;;13.78;70.73;98099.78;4972604;28;20046;-53
2022/11/08 00:49:36;;;;;;;7.75;2.15;;;;;;;13.78;71.03;98102.38;4992707;28;20066;-49
2022/11/08 00:52:03;;;;;;;7.20;2.15;;;;;;;13.77;70.44;98092.88;4972349;28;20057;-48
2022/11/08 00:54:29;;;;;;;9.45;2.10;;;;;;;13.79;70.46;98109.28;4976781;28;20068;-48
2022/11/08 00:56:56;;;;;;;5.32;2.72;;;;;;;13.72;69.99;98085.28;4975451;28;20072;-49
2022/11/08 00:59:23;;;;;;;4.45;2.25;;;;;;;13.73;70.31;98097.41;4978578;28;20709;-49
2022/11/08 01:01:49;;;;;;;8.13;2.65;;;;;;;13.74;70.47;98093.88;4980201;28;20668;-48
2022/11/08 01:04:18;;;;;;;5.72;0.82;;;;;;;13.75;70.27;98089.53;4983060;28;20188;-50
2022/11/08 01:06:45;;;;;;;5.60;1.95;;;;;;;13.75;70.46;98073.94;4993793;28;20188;-48
2022/11/08 01:09:12;;;;;;;8.57;1.23;;;;;;;13.69;69.95;98075.06;4993010;28;20142;-49
2022/11/08 01:11:44;;;;;;;6.03;1.33;;;;;;;13.71;70.72;98072.38;4974535;28;20516;-50
2022/11/08 01:14:11;;;;;;;5.68;1.98;;;;;;;13.70;70.42;98073.28;4974647;28;20054;-49
2022/11/08 01:16:38;;;;;;;4.35;2.28;;;;;;;13.67;69.83;98070.81;4974852;28;20065;-48
2022/11/08 01:19:05;;;;;;;7.13;2.70;;;;;;;13.67;70.57;98070.81;4971370;28;20101;-49
2022/11/08 01:21:32;;;;;;;6.43;2.47;;;;;;;13.68;69.84;98077.72;4974059;28;20137;-47
2022/11/08 01:23:58;;;;;;;5.63;2.28;;;;;;;13.62;69.92;98064.06;4974186;28;20142;-48
2022/11/08 01:26:27;;;;;;;6.72;2.35;;;;;;;13.70;70.49;98081.09;4972590;28;20054;-48
2022/11/08 01:28:54;;;;;;;5.30;0.85;;;;;;;13.69;70.12;98084.59;4978007;28;20046;-50
2022/11/08 01:31:26;;;;;;;4.07;1.85;;;;;;;13.69;69.52;98079.41;4976452;28;20134;-48
2022/11/08 01:33:53;;;;;;;6.53;1.83;;;;;;;13.62;70.20;98079.69;4979533;28;20077;-51
2022/11/08 01:36:22;;;;;;;7.32;1.88;;;;;;;13.66;69.83;98069.13;4980852;28;20046;-48
2022/11/08 01:38:49;;;;;;;7.05;2.20;;;;;;;13.67;69.55;98065.63;4990464;28;20085;-51
2022/11/08 01:41:17;;;;;;;7.70;2.17;;;;;;;13.66;68.97;98071.75;4994846;28;20165;-52
2022/11/08 01:46:38;;;;;;;3.92;1.38;;;;;;;13.69;69.09;98058.59;5038676;28;20432;-52
2022/11/08 01:54:41;;;;;;;4.13;0.98;;;;;;;13.64;69.21;98039.78;5064011;27;20393;-49
2022/11/08 01:57:12;;;;;;;6.75;1.20;;;;;;;13.57;69.87;98037.44;5082569;28;20142;-48
2022/11/08 01:59:44;;;;;;;4.63;1.17;;;;;;;13.55;69.96;98028.03;5098887;28;20096;-47
2022/11/08 02:02:11;;;;;;;8.95;1.13;;;;;;;13.45;69.82;98025.00;5097336;28;20131;-49
2022/11/08 02:04:41;;;;;;;5.05;0.68;;;;;;;13.49;70.72;98031.78;5097273;28;20135;-49
2022/11/08 02:07:10;;;;;;;3.03;1.05;;;;;;;13.45;71.24;98030.19;5099046;28;20135;-50
2022/11/08 02:09:40;;;;;;;3.88;0.93;;;;;;;13.40;71.41;98027.00;5090788;28;20143;-51
2022/11/08 02:12:08;;;;;;;4.32;1.27;;;;;;;13.40;71.58;98017.41;5096228;28;20052;-49
2022/11/08 02:14:36;;;;;;;4.07;1.55;;;;;;;13.32;72.21;98030.78;5094076;28;20594;-51
2022/11/08 02:17:05;;;;;;;3.38;1.05;;;;;;;13.34;73.00;98036.75;5097267;28;20044;-49
2022/11/08 02:19:39;;;;;;;2.97;0.95;;;;;;;13.33;73.47;98044.59;5070681;28;20047;-49
2022/11/08 02:22:15;;;;;;;9.52;1.35;;;;;;;13.29;73.01;98051.72;5096756;28;20047;-52
2022/11/08 02:24:42;;;;;;;5.60;0.93;;;;;;;13.26;74.33;98057.06;5093048;28;20080;-50
2022/11/08 02:27:10;;;;;;;4.82;1.27;;;;;;;13.18;73.65;98059.16;5100730;28;20044;-49
2022/11/08 02:29:37;;;;;;;4.40;1.48;;;;;;;13.16;73.82;98063.56;5090070;28;20054;-50
2022/11/08 02:32:05;;;;;;;8.77;2.30;;;;;;;13.14;75.27;98070.63;5095630;28;20050;-49
2022/11/08 02:34:36;;;;;;;4.13;2.50;;;;;;;13.03;74.79;98073.69;5098044;28;20387;-52
2022/11/08 02:37:05;;;;;;;4.90;1.67;;;;;;;13.00;76.12;98079.84;5096550;28;20648;-54
2022/11/08 02:39:33;;;;;;;9.25;1.17;;;;;;;12.97;76.00;98082.63;5091708;28;20633;-54
2022/11/08 02:42:01;;;;;;;5.40;1.17;;;;;;;12.83;75.91;98076.25;5091060;28;20048;-48
2022/11/08 02:44:28;;;;;;;4.53;1.77;;;;;;;12.83;75.84;98086.66;5093529;28;20456;-51
2022/11/08 02:46:54;;;;;;;2.30;1.15;;;;;;;12.87;75.79;98102.09;5091770;28;20131;-50
2022/11/08 02:49:21;;;;;;;2.88;0.80;;;;;;;12.79;75.14;98107.63;5092684;28;20123;-51
2022/11/08 02:51:51;;;;;;;3.38;0.70;;;;;;;12.74;75.50;98131.22;5093853;28;20109;-51
2022/11/08 02:54:17;;;;;;;1.67;0.63;;;;;;;12.74;75.32;98154.59;5092049;28;20040;-52
2022/11/08 02:56:44;;;;;;;1.95;0.63;;;;;;;12.69;75.64;98153.94;5096670;28;20130;-49
2022/11/08 02:59:10;;;;;;;1.83;0.40;;;;;;;12.61;75.46;98143.88;5100066;28;20147;-49
2022/11/08 03:01:37;;;;;;;0.68;0.57;;;;;;;12.48;75.38;98138.34;5096132;28;20044;-50
2022/11/08 03:04:04;;;;;;;3.45;0.82;;;;;;;12.40;75.21;98148.19;5092514;28;20052;-49
2022/11/08 03:06:30;;;;;;;1.20;1.02;;;;;;;12.32;74.42;98133.78;5081270;28;20076;-50
2022/11/08 03:08:57;;;;;;;0.43;0.40;;;;;;;12.26;75.01;98138.38;5084187;28;20135;-50
2022/11/08 03:11:24;;;;;;;0.90;0.85;;;;;;;12.21;74.99;98134.22;5077108;28;20474;-52
2022/11/08 03:13:50;;;;;;;1.30;0.50;;;;;;;12.15;75.43;98120.63;5075438;28;20043;-48
2022/11/08 03:16:17;;;;;;;3.28;0.93;;;;;;;12.12;74.03;98118.19;5082287;28;20457;-50
2022/11/08 03:18:44;;;;;;;0.85;0.30;;;;;;;12.05;75.26;98110.59;5077631;28;20054;-52
2022/11/08 03:21:10;;;;;;;2.75;0.43;;;;;;;12.00;75.56;98107.34;5081308;28;20071;-49
2022/11/08 03:23:37;;;;;;;2.00;0.40;;;;;;;11.95;75.38;98097.16;5082868;28;20575;-51
2022/11/08 03:26:04;;;;;;;2.90;0.57;;;;;;;11.92;75.36;98099.03;5086242;28;20083;-49
2022/11/08 03:28:31;;;;;;;3.67;0.55;;;;;;;11.87;74.28;98095.75;5080491;28;20056;-49
2022/11/08 03:30:58;;;;;;;2.40;0.60;;;;;;;11.83;75.79;98082.91;5083097;28;20124;-49
2022/11/08 03:33:25;;;;;;;3.28;1.08;;;;;;;11.78;74.69;98071.88;5077678;28;20040;-50
2022/11/08 03:35:52;;;;;;;0.90;0.77;;;;;;;11.77;75.70;98075.38;5080717;28;20105;-50
2022/11/08 03:38:18;;;;;;;3.08;0.77;;;;;;;11.72;75.37;98069.50;5082868;28;20131;-53
2022/11/08 03:40:46;;;;;;;1.15;0.93;;;;;;;11.70;75.74;98068.75;5077199;28;20047;-50
2022/11/08 03:43:13;;;;;;;2.50;0.50;;;;;;;11.65;76.06;98060.31;5078375;28;20048;-50
2022/11/08 03:45:39;;;;;;;1.30;0.55;;;;;;;11.62;76.45;98055.25;5079466;28;20134;-51
2022/11/08 03:48:06;;;;;;;1.88;0.50;;;;;;;11.61;75.76;98058.72;5077097;28;20080;-49
2022/11/08 03:50:33;;;;;;;1.33;0.40;;;;;;;11.59;76.66;98055.34;5074689;28;20071;-52
2022/11/08 03:52:59;;;;;;;0.55;0.55;;;;;;;11.55;75.75;98059.81;5083989;28;20047;-50
2022/11/08 03:55:27;;;;;;;0.98;0.20;;;;;;;11.49;76.84;98060.91;5082107;28;20135;-52
2022/11/08 03:57:54;;;;;;;1.85;0.93;;;;;;;11.49;76.76;98068.69;5081114;28;20190;-49
2022/11/08 04:00:23;;;;;;;1.23;1.08;;;;;;;11.45;77.14;98064.50;5076513;28;20550;-51
2022/11/08 04:02:51;;;;;;;0.70;0.57;;;;;;;11.44;77.68;98057.63;5078424;28;20678;-49
2022/11/08 04:05:18;;;;;;;1.10;0.52;;;;;;;11.41;77.22;98068.09;5078385;28;20044;-50
2022/11/08 04:07:45;;;;;;;4.13;0.85;;;;;;;11.43;77.97;98061.13;5076922;28;20053;-52
2022/11/08 04:10:13;;;;;;;0.43;0.35;;;;;;;11.44;77.44;98062.81;5076704;28;20188;-50
2022/11/08 04:15:29;;;;;;;3.13;0.47;;;;;;;11.38;78.01;98068.25;5071022;28;20135;-52
2022/11/08 04:23:35;;;;;;;0.40;0.40;;;;;;;11.29;78.01;98054.72;5062802;28;20078;-49
2022/11/08 04:26:05;;;;;;;0.40;0.38;;;;;;;11.27;78.05;98056.53;5079942;28;20135;-51
2022/11/08 04:28:35;;;;;;;0.93;0.77;;;;;;;11.28;77.75;98057.38;5078914;28;20075;-50
2022/11/08 04:31:04;;;;;;;;;;;;;;;11.05;79.18;98057.31;5082678;28;20204;-50
2022/11/08 04:33:31;;;;;;;0.57;0.30;;;;;;;11.13;77.83;98059.63;5080619;28;20371;-49
2022/11/08 04:36:03;;;;;;;0.30;0.30;;;;;;;11.10;78.58;98049.38;5080779;28;20131;-50
2022/11/08 04:38:31;;;;;;;2.83;0.30;;;;;;;11.13;77.95;98051.00;5079153;28;20127;-50
2022/11/08 04:41:01;;;;;;;0.90;0.43;;;;;;;11.13;77.18;98048.41;5077308;28;20072;-52
2022/11/08 04:43:29;;;;;;;1.33;0.30;;;;;;;11.13;77.62;98053.59;5076504;28;20052;-50
2022/11/08 04:46:01;;;;;;;0.25;0.25;;;;;;;11.10;77.70;98051.97;5080687;28;20127;-50
2022/11/08 04:48:28;;;;;;;0.73;0.10;;;;;;;11.14;78.32;98063.06;5074835;28;20080;-48
2022/11/08 04:50:55;;;;;;;0.22;0.22;;;;;;;11.14;77.71;98069.09;5074890;28;20131;-52
2022/11/08 04:53:21;;;;;;;1.80;0.38;;;;;;;11.13;77.60;98076.91;5080046;28;20056;-50
2022/11/08 04:55:48;;;;;;;0.30;0.30;;;;;;;11.10;77.41;98069.25;5079492;28;20054;-48
2022/11/08 04:58:14;;;;;;;1.05;0.45;;;;;;;11.08;78.48;98071.06;5076283;28;20044;-50
2022/11/08 05:00:41;;;;;;;1.35;0.40;;;;;;;11.07;78.31;98072.81;5076967;28;20507;-49
2022/11/08 05:03:08;;;;;;;1.17;1.08;;;;;;;11.03;78.25;98079.00;5080259;28;20615;-49
2022/11/08 05:05:35;;;;;;;0.68;0.30;;;;;;;11.01;78.31;98080.81;5079779;28;20127;-50
2022/11/08 05:08:01;;;;;;;0.60;0.40;;;;;;;10.99;77.44;98078.28;5081783;28;20067;-49
2022/11/08 05:10:28;;;;;;;0.30;0.20;;;;;;;10.99;77.86;98077.44;5081718;28;20607;-50
2022/11/08 05:12:56;;;;;;;1.17;1.17;;;;;;;10.95;78.43;98076.72;5082129;28;20074;-51
2022/11/08 05:15:23;;;;;;;0.60;0.60;;;;;;;10.91;78.61;98072.53;5079503;28;20567;-52
2022/11/08 05:17:49;;;;;;;0.38;0.38;;;;;;;10.85;77.63;98070.16;5074909;28;20182;-51
2022/11/08 05:25:52;;;;;;;0.52;0.52;;;;;;;10.73;77.99;98069.69;5075301;28;20510;-50
2022/11/08 05:28:19;;;;;;;0.40;0.38;;;;;;;10.71;78.48;98057.69;5075778;28;20136;-49
2022/11/08 05:30:55;;;;;;;1.10;0.30;;;;;;;10.63;78.65;98060.53;5072663;28;20148;-50
2022/11/08 05:33:22;;;;;;;1.58;0.30;;;;;;;10.67;78.16;98056.94;5069458;28;20071;-50
2022/11/08 05:35:49;;;;;;;1.95;0.40;;;;;;;10.61;78.77;98058.00;5073792;28;20048;-50
2022/11/08 05:38:17;;;;;;;2.15;0.43;;;;;;;10.64;78.16;98060.50;5073292;28;20144;-52
2022/11/08 05:40:44;;;;;;;1.77;0.55;;;;;;;10.62;79.01;98056.28;5073336;28;20048;-53
2022/11/08 05:43:11;;;;;;;2.00;0.30;;;;;;;10.61;78.38;98052.00;5074266;28;20048;-52
2022/11/08 05:45:38;;;;;;;2.20;0.70;;;;;;;10.58;78.76;98046.94;5073059;28;20137;-50
2022/11/08 05:48:05;;;;;;;4.15;0.30;;;;;;;10.56;78.50;98056.47;5077714;28;20040;-52
2022/11/08 05:50:33;;;;;;;3.38;0.63;;;;;;;10.53;79.36;98047.06;5079549;28;20518;-50
2022/11/08 05:53:00;;;;;;;2.90;0.40;;;;;;;10.49;78.92;98045.50;5077511;28;20131;-52
2022/11/08 05:55:27;;;;;;;1.95;0.52;;;;;;;10.50;79.36;98035.09;5078441;28;20135;-50
2022/11/08 05:57:54;;;;;;;3.65;0.75;;;;;;;10.51;79.32;98041.97;5079815;28;20239;-50
2022/11/08 06:00:20;;;;;;;5.28;0.80;;;;;;;10.46;79.83;98033.50;5080899;28;20036;-50
2022/11/08 06:02:47;;;;;;;1.15;0.75;;;;;;;10.44;79.46;98035.28;5080122;28;20064;-51
2022/11/08 06:05:14;;;;;;;1.48;0.40;;;;;;;10.46;80.19;98038.69;5075424;28;20047;-51
2022/11/08 06:07:40;;;;;;;4.22;0.40;;;;;;;10.47;80.27;98031.78;5077098;28;20143;-51
2022/11/08 06:10:08;;;;;;;4.13;0.60;;;;;;;10.51;79.36;98036.78;5079241;28;20076;-49
2022/11/08 06:12:34;;;;;;;4.60;0.35;;;;;;;10.51;79.75;98047.13;5080110;28;20127;-51
2022/11/08 06:15:01;;;;;;;4.30;0.73;;;;;;;10.52;79.88;98043.66;5079810;28;20048;-50
2022/11/08 06:17:28;;;;;;;2.50;0.52;;;;;;;10.56;80.58;98039.22;5079638;28;20048;-51
2022/11/08 06:19:55;;;;;;;3.10;0.60;;;;;;;10.56;79.92;98049.56;5081150;28;20056;-52
2022/11/08 06:22:22;;;;;;;5.68;0.95;;;;;;;10.62;80.77;98038.16;5084198;28;20198;-52
2022/11/08 06:24:49;;;;;;;11.23;1.67;;;;;;;10.57;80.20;98035.72;5076690;28;20163;-51
2022/11/08 06:27:15;;;;;;;5.78;0.77;;;;;;;10.60;79.84;98029.63;5077840;28;20579;-52
2022/11/08 06:29:42;;;;;;;3.47;0.60;;;;;;;10.54;81.21;98035.84;5076547;28;20072;-51
2022/11/08 06:32:09;;;;;;;5.85;0.90;;;;;;;10.52;81.63;98032.47;5072427;28;21429;-49
2022/11/08 06:34:36;;;;;;;5.93;0.90;;;;;;;10.61;81.11;98024.34;5073086;28;20135;-49
2022/11/08 06:37:03;;;;;;;5.75;0.70;;;;;;;10.57;81.16;98016.78;5079284;28;20047;-51
2022/11/08 06:39:30;;;;;;;5.20;0.52;;;;;;;10.59;80.65;98017.53;5081465;28;20047;-49
2022/11/08 06:41:57;;;;;;;3.08;1.10;;;;;;;10.62;80.67;98018.31;5082225;28;20071;-51
2022/11/08 06:44:23;;;;;;;8.23;0.65;;;;;;;10.65;80.36;98017.34;5079166;28;20458;-50
2022/11/08 06:46:50;;;;;;;5.07;0.70;;;;;;;10.64;80.93;98015.66;5083536;28;20085;-50
2022/11/08 06:49:17;;;;;;;6.32;0.70;;;;;;;10.68;80.23;98012.06;5082136;28;20048;-51
2022/11/08 06:51:43;;;;;;;4.90;1.27;;;;;;;10.71;80.22;98017.09;5084335;28;20131;-50
2022/11/08 06:54:10;;;;;;;4.38;0.70;;;;;;;10.73;79.88;98036.03;5080166;28;20046;-52
2022/11/08 06:56:43;;;;;;;3.72;0.80;;;;;;;10.71;80.55;98026.63;5082453;28;20044;-50
2022/11/08 06:59:10;;;;;;;4.90;0.95;;;;;;;10.74;80.61;98032.53;5086271;28;20133;-53
2022/11/08 07:01:37;;;;;;;4.82;1.00;;;;;;;10.68;80.23;98035.34;5078677;28;20113;-50
2022/11/08 07:04:10;;;;;;;2.05;0.70;;;;;;;10.71;79.49;98047.34;5075892;28;20048;-47
2022/11/08 07:06:37;;;;;;;6.05;0.50;;;;;;;10.69;79.39;98044.81;5076363;28;20143;-50
2022/11/08 07:09:04;;;;;;;2.92;0.63;;;;;;;10.66;80.14;98050.09;5081250;28;20076;-50
2022/11/08 07:11:30;;;;;;;1.08;0.30;;;;;;;10.62;79.36;98056.28;5085507;28;20055;-53
2022/11/08 07:13:57;;;;;;;3.90;0.40;;;;;;;10.58;80.22;98046.94;5086384;28;20051;-48
2022/11/08 07:16:23;;;;;;;2.58;1.10;;;;;;;10.57;80.21;98045.25;5074512;28;20367;-51
2022/11/08 07:18:50;;;;;;;5.03;1.02;;;;;;;10.58;79.64;98046.94;5075799;28;20736;-51
2022/11/08 07:21:17;;;;;;;0.57;0.40;;;;;;;10.54;79.83;98041.84;5073758;28;20146;-49
2022/11/08 07:23:43;;;;;;;3.53;0.60;;;;;;;10.54;79.06;98047.03;5076945;28;20130;-50
2022/11/08 07:26:11;;;;;;;4.95;0.40;;;;;;;10.51;79.87;98052.31;5076862;28;20130;-50
2022/11/08 07:28:38;;;;;;;4.95;0.47;;;;;;;10.56;79.22;98052.16;5079815;28;20068;-49
2022/11/08 07:31:06;;;;;;;2.97;0.47;;;;;;;10.51;79.49;98047.13;5080488;28;20564;-53
2022/11/08 07:33:33;;;;;;;2.20;0.73;;;;;;;10.53;79.29;98053.13;5079740;28;20495;-49
2022/11/08 07:36:00;;;;;;;3.92;0.60;;;;;;;10.56;79.71;98051.31;5082261;28;20044;-49
2022/11/08 07:38:27;;;;;;;2.47;0.38;;;;;;;10.57;79.39;98055.59;5077101;28;20076;-51
2022/11/08 07:40:57;;;;;;;2.00;0.60;;;;;;;10.58;79.29;98062.47;5077094;28;20040;-50
2022/11/08 07:43:25;;;;;;;4.05;0.57;;;;;;;10.57;79.47;98058.19;5077466;28;20491;-54
2022/11/08 07:45:55;;;;;;;2.05;0.35;;;;;;;10.61;79.83;98058.00;5076154;28;20685;-51
2022/11/08 07:48:22;;;;;;;6.28;1.17;;;;;;;10.63;79.83;98055.38;5075652;28;20458;-50
2022/11/08 07:50:50;;;;;;;1.48;0.68;;;;;;;10.66;79.68;98060.44;5078004;28;20048;-51
2022/11/08 07:53:16;;;;;;;1.85;0.57;;;;;;;10.68;79.39;98056.06;5073080;28;20040;-50
2022/11/08 07:55:45;;;;;;;2.83;0.85;;;;;;;10.74;79.81;98053.25;5076659;28;20617;-52
2022/11/08 07:58:13;;;;;;;1.15;0.40;;;;;;;10.77;79.49;98052.28;5077708;28;20440;-50
2022/11/08 08:00:42;;;;;;;4.97;0.52;;;;;;;10.73;79.88;98046.38;5071704;28;21209;-50
2022/11/08 08:03:11;;;;;;;0.93;0.43;;;;;;;10.78;79.97;98060.00;5075633;28;20138;-51
2022/11/08 08:05:40;;;;;;;4.75;0.82;;;;;;;10.84;79.95;98053.75;5073796;28;20052;-48
2022/11/08 08:08:07;;;;;;;2.65;0.60;;;;;;;10.88;79.80;98054.50;5076495;28;20723;-51
2022/11/08 08:10:34;;;;;;;4.70;0.50;;;;;;;10.85;79.89;98041.66;5079453;28;20071;-51
2022/11/08 08:13:02;;;;;;;3.95;0.63;;;;;;;10.85;79.07;98055.47;5075102;28;20072;-51
2022/11/08 08:15:28;;;;;;;10.65;0.85;;;;;;;10.85;79.74;98059.81;5094638;28;20043;-51
2022/11/08 08:17:55;;;;;;;7.97;0.98;;;;;;;10.79;79.45;98048.78;5073160;28;20139;-49
2022/11/08 08:20:21;;;;;;;9.30;1.70;;;;;;;10.82;80.24;98054.72;5075627;28;20741;-49
2022/11/08 08:22:49;;;;;;;5.63;1.33;;;;;;;10.87;78.92;98052.81;5078207;28;20729;-48
2022/11/08 08:25:17;;;;;;;7.60;1.25;;;;;;;10.80;80.16;98041.81;5076072;28;20496;-50
2022/11/08 08:27:49;;;;;;;5.25;1.15;;;;;;;10.85;80.52;98036.50;5072212;28;20051;-52
2022/11/08 08:30:16;;;;;;;5.25;1.35;;;;;;;11.08;80.10;98045.16;5073099;28;20397;-53
2022/11/08 08:32:44;;;;;;;5.90;0.80;;;;;;;11.38;79.28;98039.75;5079685;28;20040;-48
2022/11/08 08:35:18;;;;;;;3.92;0.43;;;;;;;12.12;79.12;98048.13;5073252;28;20067;-50
2022/11/08 08:37:45;;;;;;;3.08;0.77;;;;;;;12.82;78.07;98052.94;5076098;28;20170;-49
2022/11/08 08:40:12;;;;;;;3.63;1.00;;;;;;;13.45;76.42;98051.81;5079075;28;20075;-53
2022/11/08 08:42:38;;;;;;;5.93;1.20;;;;;;;14.00;74.83;98047.56;5082071;28;20493;-51
2022/11/08 08:45:05;;;;;;;10.48;1.02;;;;;;;14.48;73.16;98046.06;5082023;28;20127;-50
2022/11/08 08:47:40;;;;;;;3.92;0.65;;;;;;;15.03;71.93;98044.16;5081897;28;20721;-51
2022/11/08 08:50:06;;;;;;;8.13;1.02;;;;;;;15.56;71.08;98049.13;5084032;28;20070;-50
2022/11/08 08:52:33;;;;;;;9.93;1.35;;;;;;;15.90;69.72;98047.25;5080383;28;20128;-51
2022/11/08 08:55:00;;;;;;;8.90;1.67;;;;;;;16.17;68.51;98049.22;5080331;28;20093;-49
2022/11/08 08:57:26;;;;;;;8.68;1.00;;;;;;;16.10;67.01;98062.72;5077934;28;20057;-49
2022/11/08 08:59:53;;;;;;;7.45;1.00;;;;;;;16.32;67.76;98057.09;5082548;28;20076;-52
2022/11/08 09:02:41;;;;;;;7.75;1.75;;;;;;;16.52;66.25;98057.69;5078407;28;20101;-51
2022/11/08 09:05:10;;;;;;;8.15;1.00;;;;;;;16.77;66.22;98056.22;5079412;28;20060;-49
2022/11/08 09:07:37;;;;;;;7.60;2.00;;;;;;;17.20;65.48;98032.69;5078638;28;20047;-54
2022/11/08 09:10:05;;;;;;;11.32;1.70;;;;;;;17.49;63.88;98046.66;5079009;28;20090;-48
2022/11/08 09:12:32;;;;;;;7.68;1.92;;;;;;;17.59;62.87;98042.50;5076617;28;20125;-53
2022/11/08 09:14:59;;;;;;;15.20;2.22;;;;;;;18.02;62.27;98044.13;5082629;28;20040;-53
2022/11/08 09:17:27;;;;;;;9.50;1.60;;;;;;;18.30;61.02;98046.72;5078103;28;20151;-52
2022/11/08 09:19:54;;;;;;;10.95;1.55;;;;;;;18.44;60.49;98044.00;5083638;28;20063;-51
2022/11/08 09:22:23;;;;;;;12.55;2.97;;;;;;;18.54;60.22;98054.69;5082324;28;20411;-51
2022/11/08 09:24:50;;;;;;;12.02;1.20;;;;;;;18.83;59.24;98053.66;5080184;28;20059;-51
2022/11/08 09:27:16;;;;;;;15.20;1.70;;;;;;;19.19;59.14;98054.69;5071702;28;20079;-50
2022/11/08 09:29:43;;;;;;;15.55;2.58;;;;;;;19.34;58.37;98054.53;5080846;28;20071;-50
2022/11/08 09:32:10;;;;;;;9.57;1.52;;;;;;;19.50;57.66;98055.13;5080359;28;20056;-53
2022/11/08 09:34:36;;;;;;;10.80;1.63;;;;;;;19.48;57.36;98048.28;5081128;28;20048;-51
2022/11/08 09:37:03;;;;;;;11.52;1.58;;;;;;;19.38;56.54;98058.63;5081495;28;20127;-51
2022/11/08 09:39:29;;;;;;;17.30;2.17;;;;;;;19.35;57.44;98053.59;5075687;28;20055;-53
2022/11/08 09:42:31;;;;;;;9.43;1.33;;;;;;;19.10;56.80;98039.59;5080878;28;20048;-52
2022/11/08 09:47:38;;;;;;;11.02;1.88;;;;;;;19.59;57.42;98035.22;5038501;28;20773;-52
2022/11/08 09:50:17;;;;;;;12.18;3.30;;;;;;;19.84;56.05;98043.13;4998257;28;20066;-50
2022/11/08 09:52:50;;;;;;;10.93;2.50;;;;;;;19.64;55.11;98040.16;4992637;28;20132;-49
2022/11/08 10:00:39;;;;;;;7.00;1.10;;;;;;;19.31;55.48;98036.38;5021046;28;20425;-48
2022/11/08 10:03:12;;;;;;;10.40;1.67;;;;;;;19.29;55.75;98033.03;5002356;28;20050;-49
2022/11/08 10:05:43;;;;;;;9.52;0.98;;;;;;;19.27;54.83;98027.91;5000356;28;20042;-52
2022/11/08 10:08:36;;;;;;;13.27;0.80;;;;;;;19.18;54.89;98037.25;4996998;28;20070;-51
2022/11/08 10:19:38;;;;;;;7.38;1.08;;;;;;;17.31;58.76;98033.78;5043473;28;20409;-52
2022/11/08 10:22:15;;;;;;;5.00;1.13;;;;;;;17.06;58.83;98020.47;5039006;28;20512;-53
2022/11/08 10:30:12;;;;;;;4.65;0.73;;;;;;;16.79;61.53;98028.22;5031615;27;20421;-49
2022/11/08 10:32:39;;;;;;;4.55;1.35;;;;;;;16.34;61.57;98029.09;4998304;28;20616;-51
2022/11/08 10:37:51;;;;;;;9.38;1.65;;;;;;;15.88;63.01;98016.94;5052727;27;20400;-51
2022/11/08 10:43:05;;;;;;;6.38;0.68;;;;;;;15.58;63.90;98031.66;5022169;27;20415;-51
2022/11/08 10:45:35;;;;;;;10.38;1.17;;;;;;;15.44;64.63;98013.31;5017804;28;20416;-52
2022/11/08 10:48:02;;;;;;;7.50;0.88;;;;;;;15.50;65.10;98023.41;5016937;28;20204;-51
2022/11/08 10:50:41;;;;;;;5.30;1.15;;;;;;;15.37;65.07;98029.28;5020137;28;20137;-50
2022/11/08 10:53:16;;;;;;;7.13;1.13;;;;;;;15.27;64.83;98022.91;5013960;28;20066;-49
2022/11/08 10:55:49;;;;;;;4.70;0.70;;;;;;;15.26;65.42;98026.41;5018581;28;20056;-50
2022/11/08 11:01:22;;;;;;;6.53;0.77;;;;;;;15.20;65.56;98016.34;5043062;27;20416;-50
2022/11/08 11:03:51;;;;;;;4.47;0.75;;;;;;;15.11;66.28;98007.25;5032764;28;20079;-50
2022/11/08 11:06:29;;;;;;;4.03;1.00;;;;;;;14.97;66.49;98005.38;5034753;28;20132;-54
2022/11/08 11:08:59;;;;;;;8.00;1.38;;;;;;;15.00;66.56;98006.03;5037763;28;20064;-52
2022/11/08 11:11:33;;;;;;;;;;;;;;;14.81;66.84;98000.13;5022963;28;20155;-50
2022/11/08 11:14:06;;;;;;;8.48;1.30;;;;;;;14.78;67.13;98003.75;5034282;28;20012;-49
2022/11/08 11:16:36;;;;;;;12.45;1.73;;;;;;;14.71;67.20;97999.75;5028003;28;20053;-49
2022/11/08 11:19:05;;;;;;;8.65;1.15;;;;;;;14.85;67.13;97991.22;5021000;28;20141;-48
2022/11/08 11:21:36;;;;;;;7.18;0.77;;;;;;;14.78;67.66;97986.38;5034208;28;20069;-49
2022/11/08 11:24:16;;;;;;;5.18;0.65;;;;;;;14.83;66.73;97995.69;5040783;28;20049;-48
2022/11/08 11:26:59;;;;;;;9.70;1.35;;;;;;;14.91;66.62;97983.09;5027083;28;20495;-52
2022/11/08 11:29:35;;;;;;;6.65;1.40;;;;;;;14.87;66.94;97985.03;5017368;28;20136;-51
2022/11/08 11:32:25;;;;;;;7.18;1.83;;;;;;;14.75;66.55;97980.44;5021957;28;20049;-52
2022/11/08 11:34:56;;;;;;;7.63;0.90;;;;;;;14.63;66.73;97977.56;5036566;28;20132;-49
2022/11/08 11:37:31;;;;;;;7.50;0.98;;;;;;;14.56;66.42;97970.97;5038061;28;20136;-48
2022/11/08 11:40:06;;;;;;;9.80;0.98;;;;;;;14.40;66.52;97963.97;5036093;28;20125;-48
2022/11/08 11:53:15;;;;;;;4.82;1.27;;;;;;;14.04;67.17;97967.53;5097024;27;20378;-50
2022/11/08 11:56:07;;;;;;;4.75;1.23;;;;;;;14.00;67.54;97971.22;5077415;28;20102;-49
2022/11/08 12:04:34;;;;;;;4.25;0.63;;;;;;;13.33;70.83;97983.06;5015732;27;21083;-48
2022/11/08 12:12:41;;;;;;;7.68;1.77;;;;;;;13.51;71.68;97967.50;5029482;28;21083;-49
2022/11/08 12:15:47;;;;;;;6.45;1.75;;;;;;;13.16;73.27;97962.22;5041125;28;20084;-49
2022/11/08 12:18:53;;;;;;;9.50;1.17;;;;;;;13.00;72.79;97970.72;5000421;28;20505;-50
2022/11/08 12:27:18;;;;;;;10.85;1.52;;;;;;;12.93;73.39;97977.97;5036759;28;20418;-49
2022/11/08 12:30:10;;;;;;;9.57;1.13;;;;;;;12.91;73.98;97968.56;4997774;28;20135;-51
2022/11/08 12:35:41;;;;;;;5.47;1.95;;;;;;;12.94;73.63;97981.41;5021594;28;21111;-50
2022/11/08 12:46:17;;;;;;;8.32;0.60;;;;;;;13.14;72.70;97964.06;5019094;27;20413;-48
2022/11/08 12:48:59;;;;;;;3.78;0.98;;;;;;;13.07;73.00;97964.31;5014354;28;20142;-49
2022/11/08 12:52:06;;;;;;;5.00;0.82;;;;;;;12.99;72.50;97950.84;5020155;28;20156;-48
2022/11/08 12:54:40;;;;;;;1.70;0.60;;;;;;;13.04;72.83;97954.06;5007820;28;20074;-49
2022/11/08 12:57:15;;;;;;;5.07;0.95;;;;;;;13.03;72.91;97952.38;5013657;28;20050;-48
2022/11/08 12:59:51;;;;;;;6.60;1.77;;;;;;;13.06;72.38;97952.25;5012974;28;20104;-48
2022/11/08 13:02:23;;;;;;;4.28;1.30;;;;;;;13.19;72.95;97956.88;5017377;28;20080;-49
2022/11/08 13:05:17;;;;;;;2.42;1.05;;;;;;;13.20;72.87;97953.34;5019682;28;20157;-49
2022/11/08 13:13:47;;;;;;;5.85;0.93;;;;;;;13.19;71.09;97938.69;5017077;28;20414;-49
2022/11/08 13:18:56;;;;;;;4.20;1.60;;;;;;;13.29;71.60;97946.88;5016934;27;20410;-47
2022/11/08 13:26:40;;;;;;;5.13;0.90;;;;;;;13.44;70.89;97942.72;5097611;27;20388;-49
2022/11/08 13:34:59;;;;;;;11.00;3.75;;;;;;;13.35;68.73;97939.63;5115260;27;20409;-48
2022/11/08 13:45:50;;;;;;;5.20;0.73;;;;;;;13.28;68.26;97946.06;5015861;28;20422;-49
2022/11/08 13:50:55;;;;;;;7.32;1.48;;;;;;;13.23;69.02;97958.41;5039544;27;20391;-50
2022/11/08 13:58:45;;;;;;;6.03;2.22;;;;;;;13.10;69.78;97948.59;5056789;28;20423;-47
2022/11/08 14:04:23;;;;;;;8.57;1.45;;;;;;;13.02;69.42;97940.31;5000771;27;20415;-47